Terminal Aerodrome Forecast
Issued by NWS Albany, NY

Home | Current Version | Previous Version | Text Only | Print | Product List | Glossary On
Versions: 1 2 3 4 5 6 7 8 9 10 11 12 13 14 15 16 17
000
FTUS41 KALY 282336
TAFPOU
TAF
KPOU 282336Z 2900/2924 24008KT P6SM FEW090
     FM291500 20008KT P6SM BKN130
     FM291900 21012KT P6SM SCT060=

USA.gov is the U.S. government's official web portal to all federal, state and local government web resources and services.